TimeCST,TemperatureF,Dew PointF,Humidity,Sea Level PressureIn,VisibilityMPH,Wind Direction,Wind SpeedMPH,Gust SpeedMPH,PrecipitationIn,Events,Conditions,WindDirDegrees,DateUTC
12:15 AM,32.0,24.8,75,29.83,10.0,South,16.1,-,N/A,,Clear,190,2013-02-26 06:15:00
12:35 AM,32.0,24.8,75,29.83,10.0,South,12.7,19.6,N/A,,Clear,180,2013-02-26 06:35:00
12:55 AM,30.2,23.0,75,29.83,10.0,South,13.8,-,N/A,,Clear,190,2013-02-26 06:55:00
1:15 AM,32.0,23.0,69,29.83,10.0,SSW,11.5,-,N/A,,Clear,200,2013-02-26 07:15:00
1:35 AM,30.2,23.0,75,29.83,10.0,WSW,6.9,-,N/A,,Clear,250,2013-02-26 07:35:00
1:55 AM,30.2,23.0,75,29.84,10.0,SW,10.4,-,N/A,,Clear,230,2013-02-26 07:55:00
2:15 AM,30.2,23.0,75,29.84,10.0,SW,10.4,-,N/A,,Clear,230,2013-02-26 08:15:00
2:35 AM,30.2,23.0,75,29.84,10.0,WSW,5.8,-,N/A,,Clear,240,2013-02-26 08:35:00
2:55 AM,28.4,23.0,80,29.84,10.0,NW,3.5,-,N/A,,Clear,320,2013-02-26 08:55:00
3:15 AM,28.4,23.0,80,29.84,10.0,East,3.5,-,N/A,,Clear,90,2013-02-26 09:15:00
3:35 AM,30.2,23.0,75,29.83,10.0,SW,10.4,-,N/A,,Clear,230,2013-02-26 09:35:00
3:55 AM,26.6,23.0,86,29.84,10.0,NNW,3.5,-,N/A,,Clear,340,2013-02-26 09:55:00
4:15 AM,26.6,21.2,80,29.84,10.0,Calm,Calm,-,N/A,,Clear,0,2013-02-26 10:15:00
4:35 AM,26.6,21.2,80,29.84,10.0,SW,3.5,-,N/A,,Clear,230,2013-02-26 10:35:00
4:55 AM,26.6,19.4,74,29.85,10.0,Calm,Calm,-,N/A,,Clear,0,2013-02-26 10:55:00
5:15 AM,24.8,19.4,80,29.85,10.0,Calm,Calm,-,N/A,,Clear,0,2013-02-26 11:15:00
5:35 AM,23.0,19.4,86,29.86,10.0,Calm,Calm,-,N/A,,Clear,0,2013-02-26 11:35:00
5:55 AM,21.2,17.6,86,29.86,10.0,Calm,Calm,-,N/A,,Clear,0,2013-02-26 11:55:00
6:15 AM,21.2,17.6,86,29.86,10.0,Calm,Calm,-,N/A,,Clear,0,2013-02-26 12:15:00
6:35 AM,23.0,19.4,86,29.87,10.0,South,4.6,-,N/A,,Clear,180,2013-02-26 12:35:00
6:55 AM,23.0,17.6,80,29.87,10.0,SSW,3.5,-,N/A,,Clear,200,2013-02-26 12:55:00
7:15 AM,23.0,17.6,80,29.88,10.0,Calm,Calm,-,N/A,,Clear,0,2013-02-26 13:15:00
7:35 AM,21.2,17.6,86,29.89,10.0,Calm,Calm,-,N/A,,Clear,0,2013-02-26 13:35:00
7:55 AM,23.0,17.6,80,29.90,10.0,WSW,3.5,-,N/A,,Clear,250,2013-02-26 13:55:00
8:15 AM,21.2,17.6,86,29.90,10.0,Calm,Calm,-,N/A,,Clear,0,2013-02-26 14:15:00
8:35 AM,24.8,19.4,80,29.89,10.0,WNW,3.5,-,N/A,,Clear,290,2013-02-26 14:35:00
8:55 AM,24.8,19.4,80,29.90,10.0,Calm,Calm,-,N/A,,Clear,0,2013-02-26 14:55:00
9:15 AM,26.6,19.4,74,29.90,10.0,Calm,Calm,-,N/A,,Clear,0,2013-02-26 15:15:00
9:35 AM,28.4,21.2,74,29.90,10.0,West,3.5,-,N/A,,Clear,280,2013-02-26 15:35:00
9:55 AM,30.2,23.0,75,29.90,10.0,West,5.8,-,N/A,,Clear,260,2013-02-26 15:55:00
10:15 AM,30.2,23.0,75,29.90,10.0,SW,4.6,-,N/A,,Clear,230,2013-02-26 16:15:00
10:35 AM,32.0,23.0,69,29.91,10.0,WSW,4.6,-,N/A,,Clear,250,2013-02-26 16:35:00
10:55 AM,32.0,23.0,69,29.90,10.0,WSW,4.6,-,N/A,,Clear,250,2013-02-26 16:55:00
11:15 AM,33.8,24.8,70,29.90,10.0,West,4.6,-,N/A,,Clear,280,2013-02-26 17:15:00
11:35 AM,35.6,24.8,65,29.90,10.0,Calm,Calm,-,N/A,,Clear,0,2013-02-26 17:35:00
11:55 AM,35.6,24.8,65,29.91,10.0,SW,3.5,-,N/A,,Clear,220,2013-02-26 17:55:00
12:15 PM,35.6,24.8,65,29.93,10.0,Calm,Calm,-,N/A,,Scattered Clouds,0,2013-02-26 18:15:00
12:35 PM,35.6,24.8,65,29.93,10.0,Calm,Calm,-,N/A,,Overcast,0,2013-02-26 18:35:00
12:55 PM,37.4,24.8,60,29.94,10.0,Calm,Calm,-,N/A,,Overcast,0,2013-02-26 18:55:00
1:15 PM,37.4,24.8,60,29.93,10.0,Calm,Calm,-,N/A,,Overcast,0,2013-02-26 19:15:00
1:35 PM,37.4,26.6,65,29.93,10.0,SW,4.6,-,N/A,,Mostly Cloudy,230,2013-02-26 19:35:00
1:55 PM,39.2,26.6,61,29.94,10.0,SW,3.5,-,N/A,,Mostly Cloudy,230,2013-02-26 19:55:00
2:15 PM,39.2,26.6,61,29.94,10.0,NNW,6.9,-,N/A,,Overcast,330,2013-02-26 20:15:00
2:35 PM,39.2,26.6,61,29.94,10.0,North,6.9,-,N/A,,Overcast,350,2013-02-26 20:35:00
2:55 PM,39.2,24.8,56,29.95,10.0,North,9.2,-,N/A,,Overcast,350,2013-02-26 20:55:00
3:15 PM,39.2,24.8,56,29.95,10.0,North,4.6,-,N/A,,Overcast,10,2013-02-26 21:15:00
3:35 PM,39.2,26.6,61,29.95,10.0,North,6.9,-,N/A,,Overcast,350,2013-02-26 21:35:00
3:55 PM,39.2,26.6,61,29.96,10.0,North,6.9,-,N/A,,Overcast,10,2013-02-26 21:55:00
4:15 PM,39.2,28.4,65,29.97,10.0,NNW,8.1,-,N/A,,Overcast,340,2013-02-26 22:15:00
4:35 PM,39.2,28.4,65,29.97,10.0,North,10.4,-,N/A,,Overcast,360,2013-02-26 22:35:00
4:55 PM,37.4,28.4,70,29.98,10.0,North,9.2,-,N/A,,Overcast,350,2013-02-26 22:55:00
5:15 PM,37.4,28.4,70,29.99,10.0,North,9.2,-,N/A,,Mostly Cloudy,360,2013-02-26 23:15:00
5:35 PM,37.4,30.2,75,30.00,10.0,NW,11.5,18.4,N/A,,Mostly Cloudy,320,2013-02-26 23:35:00
5:55 PM,33.8,28.4,81,30.01,10.0,NW,17.3,23.0,N/A,,Mostly Cloudy,320,2013-02-26 23:55:00
6:15 PM,32.0,28.4,87,30.03,10.0,NW,15.0,19.6,N/A,,Overcast,320,2013-02-27 00:15:00
6:35 PM,32.0,28.4,87,30.04,10.0,NW,13.8,19.6,N/A,,Overcast,320,2013-02-27 00:35:00
6:55 PM,32.0,26.6,80,30.04,10.0,NW,16.1,25.3,N/A,,Overcast,320,2013-02-27 00:55:00
7:15 PM,32.0,26.6,80,30.06,10.0,NW,16.1,21.9,N/A,,Overcast,320,2013-02-27 01:15:00
7:35 PM,32.0,26.6,80,30.06,10.0,NW,11.5,-,N/A,,Overcast,320,2013-02-27 01:35:00
7:55 PM,32.0,26.6,80,30.07,10.0,NW,8.1,-,N/A,,Overcast,310,2013-02-27 01:55:00
8:15 PM,32.0,26.6,80,30.07,10.0,NW,10.4,-,N/A,,Overcast,310,2013-02-27 02:15:00
8:35 PM,32.0,26.6,80,30.08,10.0,NNW,10.4,-,N/A,,Overcast,330,2013-02-27 02:35:00
8:55 PM,32.0,26.6,80,30.08,10.0,NW,6.9,-,N/A,,Overcast,320,2013-02-27 02:55:00
9:15 PM,32.0,26.6,80,30.09,10.0,NW,15.0,-,N/A,,Overcast,320,2013-02-27 03:15:00
9:35 PM,32.0,26.6,80,30.09,10.0,NW,10.4,-,N/A,,Overcast,320,2013-02-27 03:35:00
9:55 PM,32.0,26.6,80,30.09,10.0,NNW,13.8,-,N/A,,Overcast,330,2013-02-27 03:55:00
10:15 PM,32.0,26.6,80,30.09,10.0,NNW,11.5,-,N/A,,Overcast,330,2013-02-27 04:15:00
10:35 PM,32.0,26.6,80,30.09,10.0,NNW,8.1,-,N/A,,Overcast,330,2013-02-27 04:35:00
10:55 PM,32.0,26.6,80,30.10,10.0,NNW,10.4,-,N/A,,Overcast,330,2013-02-27 04:55:00
11:15 PM,32.0,26.6,80,30.10,10.0,NNW,8.1,-,N/A,,Overcast,330,2013-02-27 05:15:00
11:35 PM,32.0,26.6,80,30.10,8.0,NNW,10.4,-,N/A,,Overcast,330,2013-02-27 05:35:00
11:55 PM,32.0,26.6,80,30.11,8.0,NNW,10.4,-,N/A,,Overcast,330,2013-02-27 05:55:00